Time;durP1;ratioP1;P1;durP2;ratioP2;P2;SDS_P1;SDS_P2;PMS_P1;PMS_P2;Temp;Humidity;BMP_temperature;BMP_pressure;BME280_temperature;BME280_humidity;BME280_pressure;Samples;Min_cycle;Max_cycle;Signal;HPM_P1;HPM_P2
2022/12/10 00:01:45;;;;;;;24.17;12.38;;;;;;;7.60;98.85;99296.00;4917384;29;20043;-77
2022/12/10 00:04:13;;;;;;;26.30;13.63;;;;;;;7.50;99.20;99299.66;4903263;29;20076;-77
2022/12/10 00:06:42;;;;;;;25.23;13.07;;;;;;;7.52;99.65;99296.63;4896840;29;20515;-77
2022/12/10 00:09:13;;;;;;;25.42;12.73;;;;;;;7.49;100.00;99316.28;4884649;29;20055;-77
2022/12/10 00:11:41;;;;;;;30.52;14.45;;;;;;;7.47;100.00;99297.50;4904039;29;20058;-77
2022/12/10 00:14:11;;;;;;;29.77;15.18;;;;;;;7.59;100.00;99293.56;4918799;29;20052;-77
2022/12/10 00:16:40;;;;;;;31.38;15.02;;;;;;;7.59;100.00;99277.22;4902663;29;20051;-77
2022/12/10 00:19:10;;;;;;;29.50;15.50;;;;;;;7.53;100.00;99271.03;4918309;29;20064;-76
2022/12/10 00:21:38;;;;;;;34.60;15.15;;;;;;;7.48;100.00;99282.00;4918374;29;20047;-76
2022/12/10 00:24:07;;;;;;;30.65;15.43;;;;;;;7.40;100.00;99284.22;4918696;29;20415;-76
2022/12/10 00:26:36;;;;;;;33.88;15.82;;;;;;;7.36;100.00;99285.09;4919859;29;20050;-76
2022/12/10 00:29:07;;;;;;;35.28;16.15;;;;;;;7.41;100.00;99287.78;4914309;29;20059;-76
2022/12/10 00:31:36;;;;;;;33.70;14.85;;;;;;;7.35;100.00;99278.88;4917881;29;20517;-77
2022/12/10 00:34:07;;;;;;;33.60;15.75;;;;;;;7.37;100.00;99292.16;4917443;29;20040;-76
2022/12/10 00:36:45;;;;;;;33.92;15.45;;;;;;;7.37;100.00;99294.88;4902694;29;20050;-76
2022/12/10 00:39:17;;;;;;;33.22;14.80;;;;;;;7.37;100.00;99287.56;4917949;29;20067;-76
2022/12/10 00:41:45;;;;;;;33.92;15.02;;;;;;;7.37;100.00;99281.28;4902664;29;20058;-76
2022/12/10 00:44:15;;;;;;;34.90;15.63;;;;;;;7.39;100.00;99271.72;4917893;29;20051;-76
2022/12/10 00:46:43;;;;;;;30.73;15.48;;;;;;;7.31;100.00;99266.13;4917459;29;20056;-76
2022/12/10 00:49:11;;;;;;;34.75;15.82;;;;;;;7.28;100.00;99248.47;4902184;29;20055;-76
2022/12/10 00:51:40;;;;;;;31.50;16.20;;;;;;;7.28;100.00;99250.38;4917682;29;20073;-76
2022/12/10 00:54:08;;;;;;;29.15;15.25;;;;;;;7.36;100.00;99260.63;4917937;29;20059;-76
2022/12/10 00:56:36;;;;;;;30.13;15.70;;;;;;;7.44;100.00;99246.38;4917204;29;20054;-76
2022/12/10 00:59:04;;;;;;;31.90;15.10;;;;;;;7.35;100.00;99248.94;4933182;29;20047;-76
2022/12/10 01:01:35;;;;;;;33.28;15.63;;;;;;;7.29;100.00;99241.13;4933689;29;20082;-76
2022/12/10 01:04:07;;;;;;;26.92;13.85;;;;;;;7.36;100.00;99247.00;4917798;29;20056;-76
2022/12/10 01:06:44;;;;;;;27.10;12.43;;;;;;;7.23;100.00;99259.41;4917590;29;20055;-76
2022/12/10 01:09:16;;;;;;;23.65;11.65;;;;;;;7.22;100.00;99253.16;4917497;29;20077;-76
2022/12/10 01:11:47;;;;;;;27.95;11.48;;;;;;;7.28;100.00;99264.78;4917218;29;20051;-76
2022/12/10 01:14:19;;;;;;;25.48;13.43;;;;;;;7.23;100.00;99238.44;4917738;29;20048;-76
2022/12/10 01:16:49;;;;;;;21.60;12.77;;;;;;;7.24;99.98;99240.06;4917493;29;20047;-76
2022/12/10 01:19:18;;;;;;;24.73;12.07;;;;;;;7.31;99.74;99239.72;4916812;29;20051;-76
2022/12/10 01:21:50;;;;;;;23.45;12.50;;;;;;;7.30;100.00;99246.28;4917275;29;20043;-76
2022/12/10 01:24:20;;;;;;;23.23;12.82;;;;;;;7.22;100.00;99261.31;4917354;29;20048;-76
2022/12/10 01:26:49;;;;;;;23.75;12.68;;;;;;;7.29;100.00;99266.44;4917446;29;20376;-76
2022/12/10 01:29:18;;;;;;;20.60;10.65;;;;;;;7.27;99.08;99249.56;4917443;29;20066;-76
2022/12/10 01:31:50;;;;;;;20.25;10.88;;;;;;;7.23;98.16;99257.50;4917029;29;20048;-76
2022/12/10 01:34:19;;;;;;;13.07;8.20;;;;;;;7.29;96.99;99268.31;4917491;29;20063;-76
2022/12/10 01:36:53;;;;;;;15.15;9.00;;;;;;;7.26;96.34;99259.66;4917541;29;20059;-76
2022/12/10 01:39:22;;;;;;;10.95;7.43;;;;;;;7.11;96.99;99251.66;4917305;29;20056;-76
2022/12/10 01:41:56;;;;;;;14.57;8.32;;;;;;;7.23;96.81;99252.06;4917513;29;20059;-76
2022/12/10 01:44:24;;;;;;;11.50;8.35;;;;;;;7.24;96.20;99242.78;4917383;29;20062;-76
2022/12/10 01:46:54;;;;;;;11.32;7.53;;;;;;;7.19;96.13;99237.41;4928370;29;20418;-76
2022/12/10 01:49:33;;;;;;;10.15;7.05;;;;;;;7.26;97.49;99242.50;4921095;29;20495;-76
2022/12/10 01:52:03;;;;;;;14.07;7.68;;;;;;;7.20;96.21;99230.06;4921020;29;20413;-76
2022/12/10 01:54:38;;;;;;;12.30;7.70;;;;;;;7.16;96.80;99238.00;4917624;29;20044;-76
2022/12/10 01:57:12;;;;;;;9.98;6.88;;;;;;;7.02;98.60;99226.19;4886948;29;20052;-76
2022/12/10 01:59:43;;;;;;;12.23;6.88;;;;;;;7.14;97.68;99237.50;4903925;29;20510;-76
2022/12/10 02:02:22;;;;;;;12.50;7.35;;;;;;;7.04;98.80;99248.47;4912756;29;20499;-76
2022/12/10 02:05:19;;;;;;;11.77;8.13;;;;;;;7.10;98.33;99233.72;4936895;29;20056;-76
2022/12/10 02:08:26;;;;;;;11.13;8.10;;;;;;;7.08;98.11;99235.91;4920980;29;20055;-76
2022/12/10 02:11:04;;;;;;;9.88;8.23;;;;;;;7.09;98.18;99253.88;4936372;29;20055;-76
2022/12/10 02:13:41;;;;;;;11.07;8.27;;;;;;;7.02;98.17;99254.19;4920631;29;20067;-76
2022/12/10 02:16:16;;;;;;;11.13;8.80;;;;;;;7.03;98.25;99255.03;4920907;29;20462;-76
2022/12/10 02:18:51;;;;;;;12.70;8.23;;;;;;;7.07;98.64;99253.31;4920629;29;20495;-77
2022/12/10 02:21:26;;;;;;;13.45;8.45;;;;;;;7.07;98.00;99254.16;4920724;29;20047;-76
2022/12/10 02:23:59;;;;;;;11.23;8.75;;;;;;;7.01;98.06;99254.47;4920453;29;20056;-76
2022/12/10 02:26:37;;;;;;;12.13;8.80;;;;;;;7.04;97.94;99245.75;4920182;29;20475;-76
2022/12/10 02:29:18;;;;;;;16.35;9.27;;;;;;;7.06;98.45;99249.81;4904674;29;20380;-76
2022/12/10 02:32:11;;;;;;;12.60;9.18;;;;;;;7.14;97.41;99248.38;4920469;29;20048;-76
2022/12/10 02:34:42;;;;;;;13.10;8.95;;;;;;;6.99;98.26;99261.03;4904644;29;20414;-76
2022/12/10 02:37:21;;;;;;;11.73;8.25;;;;;;;6.60;99.36;99253.78;4919901;29;20054;-76
2022/12/10 02:39:58;;;;;;;11.02;8.27;;;;;;;6.80;98.26;99246.56;4906037;29;20522;-76
2022/12/10 02:42:31;;;;;;;12.35;8.73;;;;;;;6.74;98.11;99250.41;4920573;29;20055;-77
2022/12/10 02:45:00;;;;;;;11.25;8.02;;;;;;;6.78;98.28;99248.72;4920569;29;20044;-76
2022/12/10 02:47:30;;;;;;;11.20;8.15;;;;;;;6.84;98.74;99242.97;4920231;29;20051;-77
2022/12/10 02:49:59;;;;;;;10.90;8.48;;;;;;;6.84;98.36;99228.53;4919709;29;20502;-76
2022/12/10 02:52:28;;;;;;;10.88;8.60;;;;;;;6.89;98.26;99233.94;4919849;29;20051;-76
2022/12/10 02:54:59;;;;;;;12.75;8.65;;;;;;;6.82;98.70;99236.19;4919924;29;20494;-76
2022/12/10 02:57:39;;;;;;;20.92;11.80;;;;;;;6.84;100.00;99242.13;4918531;29;20052;-76
2022/12/10 03:00:20;;;;;;;25.52;14.00;;;;;;;6.79;100.00;99245.72;4919797;29;20064;-76
2022/12/10 03:03:37;;;;;;;27.27;13.88;;;;;;;6.83;100.00;99256.84;4919832;29;20044;-76
2022/12/10 03:06:36;;;;;;;29.05;15.13;;;;;;;6.62;100.00;99242.63;4910240;29;20415;-76
2022/12/10 03:09:18;;;;;;;29.60;14.68;;;;;;;6.85;100.00;99243.78;4901228;29;20064;-76
2022/12/10 03:11:49;;;;;;;35.65;16.65;;;;;;;6.70;100.00;99223.78;4901173;29;20059;-76
2022/12/10 03:14:27;;;;;;;31.30;15.25;;;;;;;6.92;100.00;99222.50;4917664;29;20426;-76
2022/12/10 03:17:01;;;;;;;34.47;16.15;;;;;;;6.99;100.00;99227.56;4919286;29;20063;-76
2022/12/10 03:19:55;;;;;;;;;;;;;;;7.13;100.00;99224.97;4920410;29;20059;-76
2022/12/10 03:22:23;;;;;;;38.85;18.85;;;;;;;6.85;100.00;99213.88;4917008;29;20309;-76
2022/12/10 03:24:52;;;;;;;32.80;18.15;;;;;;;6.78;100.00;99211.47;4919473;29;20062;-76
2022/12/10 03:27:23;;;;;;;36.53;18.98;;;;;;;6.58;100.00;99224.19;4918864;29;20044;-77
2022/12/10 03:29:55;;;;;;;38.65;18.15;;;;;;;6.76;100.00;99221.03;4919306;29;20050;-76
2022/12/10 03:32:26;;;;;;;40.28;20.13;;;;;;;6.64;100.00;99219.50;4918900;29;20060;-76
2022/12/10 03:34:58;;;;;;;35.08;18.25;;;;;;;6.58;100.00;99235.06;4903883;29;20060;-76
2022/12/10 03:37:27;;;;;;;38.28;19.98;;;;;;;6.72;100.00;99235.22;4918918;29;20047;-76
2022/12/10 03:39:56;;;;;;;40.88;18.48;;;;;;;6.71;100.00;99232.78;4918989;29;20082;-76
2022/12/10 03:42:25;;;;;;;38.15;18.88;;;;;;;6.76;100.00;99242.78;4934422;29;20051;-76
2022/12/10 03:44:53;;;;;;;39.15;18.80;;;;;;;6.84;100.00;99231.25;4918366;29;20050;-76
2022/12/10 03:47:21;;;;;;;36.08;18.10;;;;;;;6.48;100.00;99239.75;4908269;29;20402;-76
2022/12/10 03:49:49;;;;;;;39.03;19.33;;;;;;;6.54;100.00;99242.16;4921369;29;20059;-76
2022/12/10 03:52:17;;;;;;;39.35;18.88;;;;;;;6.62;100.00;99235.31;4918668;29;20058;-76
2022/12/10 03:54:45;;;;;;;39.28;20.27;;;;;;;6.56;100.00;99244.59;4918266;29;20055;-76
2022/12/10 03:57:13;;;;;;;44.60;20.08;;;;;;;6.52;100.00;99232.66;4918863;29;20058;-76
2022/12/10 03:59:41;;;;;;;39.78;19.90;;;;;;;6.57;100.00;99238.06;4918731;29;20055;-76
2022/12/10 04:02:10;;;;;;;41.42;21.10;;;;;;;6.27;100.00;99224.44;4903370;29;20066;-76
2022/12/10 04:04:41;;;;;;;42.97;20.40;;;;;;;6.36;100.00;99240.94;4918235;29;20475;-76
2022/12/10 04:07:09;;;;;;;39.45;20.85;;;;;;;6.43;100.00;99227.88;4902864;29;20058;-76
2022/12/10 04:09:37;;;;;;;41.38;20.98;;;;;;;6.45;100.00;99216.69;4918424;29;20044;-76
2022/12/10 04:12:06;;;;;;;40.80;20.35;;;;;;;6.48;100.00;99228.91;4918376;29;20056;-76
2022/12/10 04:17:22;;;;;;;47.45;21.42;;;;;;;6.68;100.00;99206.97;4918045;29;20047;-76
2022/12/10 04:19:50;;;;;;;42.97;21.58;;;;;;;6.45;100.00;99203.91;4918658;29;20047;-76
2022/12/10 04:27:51;;;;;;;38.35;20.42;;;;;;;6.57;100.00;99213.59;4918196;29;20048;-76
2022/12/10 04:30:19;;;;;;;43.05;20.92;;;;;;;6.55;100.00;99218.53;4918127;29;20067;-76
2022/12/10 04:32:48;;;;;;;39.42;20.52;;;;;;;6.64;100.00;99218.72;4917846;29;20052;-76
2022/12/10 04:35:16;;;;;;;40.83;21.27;;;;;;;6.78;100.00;99221.53;4916868;29;20114;-76
2022/12/10 04:37:44;;;;;;;41.47;22.02;;;;;;;6.64;100.00;99205.13;4902125;29;20047;-76
2022/12/10 04:40:12;;;;;;;42.90;22.13;;;;;;;6.61;100.00;99220.09;4917628;29;20047;-76
2022/12/10 04:42:40;;;;;;;43.00;20.90;;;;;;;6.72;100.00;99221.63;4898439;29;20048;-76
2022/12/10 04:45:09;;;;;;;43.47;21.38;;;;;;;6.83;100.00;99208.72;4917767;29;20056;-76
2022/12/10 04:47:37;;;;;;;41.00;21.40;;;;;;;6.86;100.00;99219.00;4917418;29;20050;-76
2022/12/10 04:50:06;;;;;;;44.15;21.65;;;;;;;6.79;100.00;99223.19;4916431;29;20431;-76
2022/12/10 04:52:34;;;;;;;42.53;21.38;;;;;;;6.88;100.00;99209.75;4877384;29;20059;-76
2022/12/10 04:55:02;;;;;;;38.95;21.10;;;;;;;6.94;100.00;99200.44;4917534;29;20063;-76
2022/12/10 04:57:30;;;;;;;40.28;20.33;;;;;;;6.90;100.00;99202.13;4906832;29;20051;-76
2022/12/10 04:59:58;;;;;;;42.72;22.35;;;;;;;6.86;100.00;99205.41;4916950;29;20058;-76
2022/12/10 05:02:26;;;;;;;46.35;21.88;;;;;;;6.97;100.00;99189.78;4917124;29;20051;-76
2022/12/10 05:04:54;;;;;;;43.78;22.05;;;;;;;7.04;100.00;99191.34;4917215;29;20129;-76
2022/12/10 05:07:22;;;;;;;46.17;21.45;;;;;;;7.07;100.00;99182.59;4901957;29;20051;-76
2022/12/10 05:09:50;;;;;;;39.45;20.83;;;;;;;7.04;100.00;99180.47;4917647;29;20054;-76
2022/12/10 05:12:19;;;;;;;40.30;20.00;;;;;;;6.81;100.00;99177.47;4912972;29;20491;-76
2022/12/10 05:14:47;;;;;;;44.85;20.23;;;;;;;6.88;100.00;99180.63;4913920;29;20059;-76
2022/12/10 05:17:15;;;;;;;39.10;19.25;;;;;;;7.04;100.00;99180.47;4914476;29;20056;-76
2022/12/10 05:19:43;;;;;;;37.47;18.38;;;;;;;6.93;100.00;99175.16;4914100;29;20044;-76
2022/12/10 05:25:00;;;;;;;37.58;19.58;;;;;;;6.93;100.00;99160.72;4932375;29;20483;-76
2022/12/10 05:27:33;;;;;;;32.45;17.55;;;;;;;6.97;100.00;99178.09;4932237;29;20507;-76
2022/12/10 05:30:01;;;;;;;33.88;18.05;;;;;;;7.05;100.00;99174.75;4917322;29;20050;-76
2022/12/10 05:32:29;;;;;;;38.17;19.30;;;;;;;7.00;100.00;99166.66;4916992;29;20048;-76
2022/12/10 05:34:57;;;;;;;40.30;19.92;;;;;;;6.87;100.00;99160.00;4917219;29;20048;-76
2022/12/10 05:37:26;;;;;;;35.53;18.58;;;;;;;6.86;100.00;99163.81;4901907;29;20051;-76
2022/12/10 05:39:54;;;;;;;38.83;19.63;;;;;;;6.87;100.00;99165.44;4916805;29;20078;-76
2022/12/10 05:42:22;;;;;;;38.95;18.08;;;;;;;6.96;100.00;99162.88;4916586;29;20054;-76
2022/12/10 05:44:50;;;;;;;41.45;18.92;;;;;;;7.10;100.00;99162.97;4917036;29;20407;-76
2022/12/10 05:47:18;;;;;;;37.17;18.30;;;;;;;7.12;100.00;99158.06;4917143;29;20059;-76
2022/12/10 05:49:47;;;;;;;40.08;20.98;;;;;;;7.18;100.00;99165.03;4917079;29;20048;-76
2022/12/10 05:52:19;;;;;;;36.65;19.50;;;;;;;7.27;100.00;99154.31;4916839;29;20390;-76
2022/12/10 05:54:47;;;;;;;42.83;21.40;;;;;;;7.18;100.00;99156.09;4916581;29;20056;-76
2022/12/10 05:57:15;;;;;;;37.03;18.95;;;;;;;7.10;100.00;99154.81;4916901;29;20067;-76
2022/12/10 05:59:43;;;;;;;43.90;19.75;;;;;;;7.17;100.00;99141.66;4906774;29;20063;-75
2022/12/10 06:02:11;;;;;;;38.05;20.50;;;;;;;7.09;100.00;99148.56;4915766;29;20467;-75
2022/12/10 06:04:39;;;;;;;39.33;19.30;;;;;;;7.16;100.00;99161.81;4901420;29;20070;-76
2022/12/10 06:07:07;;;;;;;40.63;21.17;;;;;;;7.15;100.00;99165.66;4932921;29;20406;-76
2022/12/10 06:09:38;;;;;;;40.45;19.92;;;;;;;7.13;100.00;99162.38;4917017;29;20411;-77
2022/12/10 06:12:06;;;;;;;41.20;21.13;;;;;;;7.18;100.00;99159.59;4928491;29;20052;-76
2022/12/10 06:14:34;;;;;;;41.20;20.25;;;;;;;7.16;100.00;99147.38;4915893;29;20043;-77
2022/12/10 06:17:02;;;;;;;41.10;20.92;;;;;;;7.10;100.00;99142.00;4907410;29;20048;-76
2022/12/10 06:19:30;;;;;;;40.40;19.80;;;;;;;7.05;100.00;99133.13;4896669;29;20060;-76
2022/12/10 06:21:58;;;;;;;40.85;19.85;;;;;;;6.97;100.00;99137.28;4884233;29;20055;-77
2022/12/10 06:24:26;;;;;;;41.20;20.35;;;;;;;7.01;100.00;99148.41;4917120;29;20047;-76
2022/12/10 06:26:54;;;;;;;38.72;20.17;;;;;;;7.08;100.00;99149.66;4901297;29;20052;-76
2022/12/10 06:29:23;;;;;;;41.47;20.02;;;;;;;7.17;100.00;99155.28;4916098;29;20048;-76
2022/12/10 06:31:51;;;;;;;36.75;18.15;;;;;;;7.13;100.00;99146.88;4899867;29;20047;-76
2022/12/10 06:34:19;;;;;;;37.60;18.63;;;;;;;7.13;100.00;99141.44;4919012;29;20059;-76
2022/12/10 06:36:47;;;;;;;41.42;19.92;;;;;;;7.07;100.00;99152.66;4904203;29;20059;-77
2022/12/10 06:39:15;;;;;;;36.95;18.20;;;;;;;7.04;100.00;99169.59;4913825;29;20043;-77
2022/12/10 06:41:43;;;;;;;42.38;19.13;;;;;;;6.97;100.00;99172.66;4919607;29;20058;-77
2022/12/10 06:44:12;;;;;;;41.40;20.33;;;;;;;7.13;100.00;99173.28;4936824;29;20054;-77
2022/12/10 06:46:40;;;;;;;41.40;19.58;;;;;;;7.18;100.00;99165.03;4919366;29;20059;-76
2022/12/10 06:49:09;;;;;;;43.70;20.33;;;;;;;7.20;100.00;99168.31;4920025;29;20048;-77
2022/12/10 06:51:38;;;;;;;42.40;18.77;;;;;;;7.26;100.00;99158.97;4919508;29;20059;-77
2022/12/10 06:54:06;;;;;;;41.15;20.35;;;;;;;7.24;100.00;99163.88;4919488;29;20047;-77
2022/12/10 06:56:34;;;;;;;43.17;20.90;;;;;;;7.19;100.00;99172.09;4919631;29;20090;-76
2022/12/10 06:59:06;;;;;;;40.80;20.30;;;;;;;7.07;100.00;99175.25;4935587;29;20058;-77
2022/12/10 07:01:34;;;;;;;44.88;20.65;;;;;;;7.23;100.00;99178.59;4921248;29;20051;-76
2022/12/10 07:04:03;;;;;;;42.22;19.70;;;;;;;7.17;100.00;99198.81;4919869;29;20502;-76
2022/12/10 07:06:32;;;;;;;34.70;20.05;;;;;;;7.18;100.00;99192.25;4919634;29;20047;-77
2022/12/10 07:09:00;;;;;;;46.28;22.42;;;;;;;7.19;100.00;99176.75;4919432;29;20047;-76
2022/12/10 07:11:30;;;;;;;41.25;21.58;;;;;;;7.15;100.00;99192.84;4919148;29;20407;-77
2022/12/10 07:13:59;;;;;;;40.20;20.58;;;;;;;7.22;100.00;99182.41;4911740;29;20043;-77
2022/12/10 07:16:30;;;;;;;45.30;22.00;;;;;;;7.25;100.00;99187.25;4935009;29;20043;-78
2022/12/10 07:19:00;;;;;;;41.05;20.00;;;;;;;7.39;100.00;99198.25;4919288;29;20072;-78
2022/12/10 07:21:33;;;;;;;44.78;19.95;;;;;;;7.53;100.00;99203.78;4919312;29;20394;-78
2022/12/10 07:24:06;;;;;;;37.38;19.23;;;;;;;7.47;100.00;99206.84;4919490;29;20403;-79
2022/12/10 07:26:36;;;;;;;39.78;20.30;;;;;;;7.47;100.00;99207.66;4919154;29;20043;-78
2022/12/10 07:29:06;;;;;;;38.10;19.45;;;;;;;7.38;100.00;99212.16;4919472;29;20491;-78
2022/12/10 07:31:35;;;;;;;39.92;20.58;;;;;;;7.47;100.00;99213.13;4919759;29;20505;-78
2022/12/10 07:34:03;;;;;;;41.33;20.42;;;;;;;7.44;100.00;99204.72;4919176;29;20047;-78
2022/12/10 07:36:31;;;;;;;38.17;18.95;;;;;;;7.36;100.00;99208.91;4934606;29;20051;-78
2022/12/10 07:38:59;;;;;;;38.03;18.17;;;;;;;7.33;100.00;99214.94;4919601;29;20052;-78
2022/12/10 07:41:27;;;;;;;35.22;18.77;;;;;;;7.33;100.00;99202.13;4934553;29;20066;-78
2022/12/10 07:43:56;;;;;;;38.38;18.67;;;;;;;7.43;100.00;99220.25;4900539;29;20051;-78
2022/12/10 07:46:29;;;;;;;39.85;19.08;;;;;;;7.33;100.00;99204.06;4919027;29;20052;-78
2022/12/10 07:49:01;;;;;;;38.67;18.70;;;;;;;7.33;100.00;99226.63;4890255;29;20486;-78
2022/12/10 07:51:29;;;;;;;38.80;18.67;;;;;;;7.45;100.00;99218.06;4935299;29;20055;-79
2022/12/10 07:53:57;;;;;;;40.08;18.27;;;;;;;7.50;100.00;99204.38;4935676;29;20043;-79
2022/12/10 07:56:26;;;;;;;42.95;20.00;;;;;;;7.48;100.00;99214.72;4935098;29;20059;-78
2022/12/10 07:58:54;;;;;;;41.35;18.92;;;;;;;7.57;100.00;99208.66;4918800;29;20058;-80
2022/12/10 08:01:25;;;;;;;36.67;18.50;;;;;;;7.56;100.00;99209.72;4918682;29;20411;-80
2022/12/10 08:03:56;;;;;;;40.90;20.13;;;;;;;7.71;100.00;99206.78;4934354;29;20048;-80
2022/12/10 08:06:25;;;;;;;45.63;20.45;;;;;;;7.77;99.52;99199.38;4936238;29;20044;-79
2022/12/10 08:08:54;;;;;;;38.45;19.77;;;;;;;7.74;100.00;99198.06;4935416;29;20051;-79
2022/12/10 08:11:22;;;;;;;40.83;20.88;;;;;;;7.69;100.00;99184.50;4934940;29;20506;-80
2022/12/10 08:13:51;;;;;;;42.88;20.40;;;;;;;7.82;99.69;99187.59;4925527;29;20055;-80
2022/12/10 08:16:26;;;;;;;41.00;20.95;;;;;;;7.97;99.72;99190.06;4935389;29;20052;-80
2022/12/10 08:18:59;;;;;;;40.72;19.73;;;;;;;7.86;100.00;99185.91;4935125;29;20063;-80
2022/12/10 08:21:29;;;;;;;43.47;19.63;;;;;;;7.81;100.00;99189.50;4934945;29;20063;-80
2022/12/10 08:23:58;;;;;;;42.65;20.65;;;;;;;7.89;100.00;99174.41;4924547;29;20056;-80
2022/12/10 08:26:31;;;;;;;39.80;21.05;;;;;;;8.01;98.58;99172.03;4934102;29;20050;-80
2022/12/10 08:28:59;;;;;;;37.35;19.10;;;;;;;7.89;99.45;99177.94;4932987;29;20052;-78
2022/12/10 08:31:27;;;;;;;36.53;18.10;;;;;;;7.82;100.00;99171.25;4924609;29;20042;-78
2022/12/10 08:34:04;;;;;;;38.40;18.70;;;;;;;7.74;99.72;99164.56;4935127;29;20047;-78
2022/12/10 08:36:32;;;;;;;39.88;19.80;;;;;;;7.94;100.00;99177.84;4921088;29;20495;-79
2022/12/10 08:39:00;;;;;;;38.78;19.10;;;;;;;8.04;99.77;99179.63;4916287;29;20056;-79
2022/12/10 08:41:28;;;;;;;39.83;18.92;;;;;;;8.01;100.00;99182.91;4916041;29;20055;-79
2022/12/10 08:43:56;;;;;;;42.58;19.08;;;;;;;8.01;100.00;99185.66;4916348;29;20052;-79
2022/12/10 08:46:25;;;;;;;36.22;17.10;;;;;;;7.93;100.00;99189.06;4916088;29;20049;-78
2022/12/10 08:48:53;;;;;;;36.85;18.13;;;;;;;7.99;100.00;99195.22;4929798;29;20502;-79
2022/12/10 08:51:22;;;;;;;40.05;18.98;;;;;;;8.03;100.00;99199.78;4932432;29;20383;-78
2022/12/10 08:53:50;;;;;;;39.03;19.67;;;;;;;7.93;100.00;99202.69;4934736;29;20043;-77
2022/12/10 08:56:18;;;;;;;39.65;19.02;;;;;;;7.93;100.00;99187.13;4933382;29;20047;-81
2022/12/10 08:58:46;;;;;;;42.38;19.95;;;;;;;8.09;99.40;99196.97;4934041;29;20059;-81
2022/12/10 09:01:17;;;;;;;36.40;17.90;;;;;;;8.13;99.64;99185.19;4934471;29;20489;-81
2022/12/10 09:03:45;;;;;;;33.75;17.83;;;;;;;8.24;99.70;99199.44;4934254;29;20066;-79
2022/12/10 09:06:17;;;;;;;41.13;19.52;;;;;;;8.22;99.33;99196.22;4933559;29;20052;-80
2022/12/10 09:08:45;;;;;;;35.65;16.83;;;;;;;8.22;99.17;99189.94;4933858;29;20051;-80
2022/12/10 09:11:25;;;;;;;36.47;16.45;;;;;;;8.26;99.45;99190.97;4933422;29;20032;-80
2022/12/10 09:13:53;;;;;;;37.40;21.27;;;;;;;8.28;99.04;99197.75;4934547;29;20514;-80
2022/12/10 09:16:28;;;;;;;39.88;19.40;;;;;;;8.41;98.97;99189.91;4934777;29;20082;-80
2022/12/10 09:18:57;;;;;;;39.08;18.83;;;;;;;8.22;99.33;99187.22;4922293;29;20043;-80
2022/12/10 09:21:25;;;;;;;32.70;17.77;;;;;;;8.43;99.32;99191.22;4932773;29;20048;-81
2022/12/10 09:23:53;;;;;;;37.38;17.95;;;;;;;8.34;99.54;99191.09;4934248;29;20059;-80
2022/12/10 09:26:22;;;;;;;38.70;17.77;;;;;;;8.30;99.69;99184.63;4933359;29;20060;-81
2022/12/10 09:28:51;;;;;;;34.75;17.00;;;;;;;8.25;99.13;99184.72;4935377;29;20395;-80
2022/12/10 09:31:20;;;;;;;33.08;17.13;;;;;;;8.24;99.22;99194.00;4934827;29;20056;-80
2022/12/10 09:33:50;;;;;;;35.63;16.75;;;;;;;8.19;99.13;99191.34;4933905;29;20051;-79
2022/12/10 09:36:19;;;;;;;31.40;16.48;;;;;;;8.28;100.00;99188.75;4934292;29;20368;-81
2022/12/10 09:38:48;;;;;;;38.38;17.48;;;;;;;8.22;99.75;99187.22;4934138;29;20052;-80
2022/12/10 09:41:40;;;;;;;37.00;16.77;;;;;;;8.29;99.80;99191.19;4933601;29;20066;-80
2022/12/10 09:44:26;;;;;;;29.35;16.48;;;;;;;8.38;99.09;99187.78;4930556;29;20058;-80
2022/12/10 09:46:57;;;;;;;35.17;17.50;;;;;;;8.25;100.00;99184.72;4933521;29;20048;-80
2022/12/10 09:49:57;;;;;;;37.90;17.17;;;;;;;8.41;99.48;99187.97;4942281;28;20048;-80
2022/12/10 09:52:31;;;;;;;32.08;15.93;;;;;;;8.38;99.93;99176.88;4908023;29;20056;-81
2022/12/10 09:55:03;;;;;;;34.28;16.30;;;;;;;8.49;99.83;99174.78;4927549;29;20071;-80
2022/12/10 09:57:36;;;;;;;34.70;16.50;;;;;;;8.63;99.14;99166.63;4933017;29;20051;-81
2022/12/10 10:00:29;;;;;;;33.28;16.75;;;;;;;8.59;98.83;99177.34;4933590;29;20044;-80
2022/12/10 10:02:59;;;;;;;35.78;18.08;;;;;;;8.59;98.63;99161.78;4929587;29;20663;-79
2022/12/10 10:05:33;;;;;;;37.10;17.83;;;;;;;8.69;98.32;99159.97;4929588;29;20059;-79
2022/12/10 10:08:04;;;;;;;38.85;18.92;;;;;;;8.77;96.65;99148.38;4933615;29;20062;-78
2022/12/10 10:10:38;;;;;;;36.28;18.10;;;;;;;8.81;96.60;99149.34;4936183;29;20062;-79
2022/12/10 10:13:21;;;;;;;35.67;17.73;;;;;;;8.71;98.10;99142.19;4937865;29;20055;-78
2022/12/10 10:15:49;;;;;;;37.60;19.20;;;;;;;8.78;98.16;99149.97;4937905;29;20048;-77
2022/12/10 10:18:39;;;;;;;39.13;18.33;;;;;;;8.76;98.36;99133.13;4938070;29;20052;-77
2022/12/10 10:21:32;;;;;;;36.65;16.75;;;;;;;8.72;98.13;99123.91;4936568;29;20054;-76
2022/12/10 10:24:03;;;;;;;39.88;18.85;;;;;;;8.81;97.63;99130.25;4937826;29;20048;-78
2022/12/10 10:26:38;;;;;;;34.75;17.33;;;;;;;8.96;97.71;99123.72;4937953;29;20047;-78
2022/12/10 10:29:12;;;;;;;37.53;18.63;;;;;;;8.93;96.88;99123.50;4937885;29;20055;-78
2022/12/10 10:31:42;;;;;;;37.80;17.75;;;;;;;8.79;97.70;99118.84;4937647;29;20071;-78
2022/12/10 10:34:22;;;;;;;33.92;16.35;;;;;;;8.90;98.50;99111.25;4937738;29;20047;-79
2022/12/10 10:36:57;;;;;;;37.70;17.25;;;;;;;9.03;97.71;99108.84;4937404;29;20047;-78
2022/12/10 10:39:30;;;;;;;32.33;16.73;;;;;;;8.85;97.05;99101.28;4937262;29;20060;-79
2022/12/10 10:42:07;;;;;;;34.10;16.55;;;;;;;8.92;96.74;99091.88;4937507;29;20070;-78
2022/12/10 10:44:38;;;;;;;34.65;16.65;;;;;;;9.16;95.37;99093.53;4937362;29;20059;-79
2022/12/10 10:47:32;;;;;;;36.20;17.48;;;;;;;9.18;95.57;99089.41;4935533;29;20092;-77
2022/12/10 10:50:03;;;;;;;35.03;17.67;;;;;;;9.22;96.03;99087.66;4933954;29;20051;-78
2022/12/10 10:52:42;;;;;;;33.45;16.27;;;;;;;9.12;95.42;99080.53;4936727;29;20509;-78
2022/12/10 10:55:34;;;;;;;34.35;17.55;;;;;;;9.14;95.87;99072.81;4940427;29;20537;-78
2022/12/10 10:58:05;;;;;;;33.60;15.75;;;;;;;9.33;95.60;99074.59;4936881;29;20048;-77
2022/12/10 11:00:33;;;;;;;33.78;17.23;;;;;;;9.25;96.80;99072.59;4936983;29;20043;-77
2022/12/10 11:03:07;;;;;;;29.83;14.88;;;;;;;9.37;96.33;99067.41;4936733;29;20048;-78
2022/12/10 11:05:35;;;;;;;32.20;16.35;;;;;;;9.28;96.16;99050.13;4935713;29;20047;-78
2022/12/10 11:08:13;;;;;;;32.28;16.60;;;;;;;9.46;95.75;99050.28;4936722;29;20399;-78
2022/12/10 11:10:55;;;;;;;30.48;16.30;;;;;;;9.31;97.18;99057.72;4936546;29;20063;-78
2022/12/10 11:13:25;;;;;;;32.42;16.77;;;;;;;9.44;97.27;99044.31;4935988;29;20056;-81
2022/12/10 11:16:01;;;;;;;34.72;16.80;;;;;;;9.48;96.16;99048.06;4935626;29;20272;-79
2022/12/10 11:18:35;;;;;;;33.15;15.40;;;;;;;9.74;95.30;99055.59;4932855;29;20044;-78
2022/12/10 11:21:14;;;;;;;30.70;15.82;;;;;;;9.74;95.85;99056.44;4935869;29;20058;-81
2022/12/10 11:23:47;;;;;;;31.30;15.73;;;;;;;9.58;96.49;99036.84;4934419;29;20079;-77
2022/12/10 11:26:37;;;;;;;33.65;15.55;;;;;;;9.65;97.02;99045.44;4936137;29;20040;-77
2022/12/10 11:29:20;;;;;;;32.40;15.88;;;;;;;9.70;95.47;99043.69;4928388;29;20047;-77
2022/12/10 11:32:03;;;;;;;33.70;15.27;;;;;;;9.76;95.37;99045.16;4935626;29;20044;-78
2022/12/10 11:34:49;;;;;;;36.70;18.17;;;;;;;9.84;95.58;99049.06;4935006;29;20048;-79
2022/12/10 11:37:28;;;;;;;34.60;16.90;;;;;;;9.80;95.91;99035.22;4935280;29;20052;-78
2022/12/10 11:40:24;;;;;;;31.42;15.82;;;;;;;9.88;95.42;99034.47;4917519;29;20484;-79
2022/12/10 11:43:22;;;;;;;32.75;17.52;;;;;;;9.87;96.12;99027.38;4917670;29;20063;-78
2022/12/10 11:46:11;;;;;;;31.55;17.27;;;;;;;9.94;94.54;99038.69;4925993;29;20494;-79
2022/12/10 11:48:46;;;;;;;30.63;16.42;;;;;;;9.78;94.57;99023.81;4936512;29;20047;-78
2022/12/10 11:51:51;;;;;;;32.53;16.92;;;;;;;9.57;97.17;99029.78;4935299;29;20040;-78
2022/12/10 11:54:37;;;;;;;32.83;16.92;;;;;;;9.55;96.73;99026.56;4936042;29;20051;-78
2022/12/10 11:57:30;;;;;;;31.98;15.70;;;;;;;9.50;97.53;99013.03;4936052;29;20048;-79